createdAt,value
2019-03-09T00:01:13.162Z,83.16
2019-03-09T00:03:41.452Z,83.22
2019-03-09T00:06:09.922Z,83.03
2019-03-09T00:08:38.006Z,82.69
2019-03-09T00:11:06.449Z,82.36
2019-03-09T00:13:34.583Z,82.13
2019-03-09T00:16:02.695Z,82.93
2019-03-09T00:18:30.801Z,83.64
2019-03-09T00:20:58.829Z,84.82
2019-03-09T00:23:45.178Z,85.66
2019-03-09T00:26:27.535Z,87.24
2019-03-09T00:29:01.511Z,86.52
2019-03-09T00:31:34.153Z,87.88
2019-03-09T00:34:02.651Z,88.55
2019-03-09T00:36:30.717Z,89.53
2019-03-09T00:38:58.848Z,89.25
2019-03-09T00:41:27.325Z,88.47
2019-03-09T00:43:55.542Z,88.64
2019-03-09T00:46:23.675Z,89.08
2019-03-09T00:48:51.824Z,89.51
2019-03-09T00:51:19.905Z,89.96
2019-03-09T00:53:48.044Z,90.40
2019-03-09T00:56:16.125Z,91.66
2019-03-09T00:58:44.304Z,91.87
2019-03-09T01:01:12.825Z,92.73
2019-03-09T01:03:41.355Z,93.61
2019-03-09T01:06:09.422Z,94.14
2019-03-09T01:08:37.538Z,95.41
2019-03-09T01:11:05.917Z,95.72
2019-03-09T01:13:34.018Z,96.71
2019-03-09T01:16:02.370Z,97.61
2019-03-09T01:18:30.897Z,98.58
2019-03-09T01:20:58.976Z,99.33
2019-03-09T01:23:27.163Z,100.00
2019-03-09T01:25:56.346Z,100.00
2019-03-09T01:28:24.579Z,100.00
2019-03-09T01:30:52.645Z,100.00
2019-03-09T01:33:20.708Z,100.00
2019-03-09T01:35:48.867Z,100.00
2019-03-09T01:38:16.930Z,100.00
2019-03-09T01:40:45.042Z,100.00
2019-03-09T01:43:13.431Z,100.00
2019-03-09T01:45:41.573Z,100.00
2019-03-09T01:48:09.708Z,100.00
2019-03-09T01:50:37.814Z,100.00
2019-03-09T01:53:05.932Z,100.00
2019-03-09T01:55:34.047Z,100.00
2019-03-09T01:58:02.214Z,100.00
2019-03-09T02:00:30.472Z,100.00
2019-03-09T02:02:58.572Z,100.00
2019-03-09T02:05:26.676Z,100.00
2019-03-09T02:07:54.720Z,100.00
2019-03-09T02:10:22.951Z,100.00
2019-03-09T02:12:51.269Z,100.00
2019-03-09T02:15:19.824Z,100.00
2019-03-09T02:17:48.268Z,100.00
2019-03-09T02:20:16.452Z,100.00
2019-03-09T02:22:44.612Z,100.00
2019-03-09T02:25:13.391Z,100.00
2019-03-09T02:27:41.573Z,100.00
2019-03-09T02:30:10.654Z,100.00
2019-03-09T02:32:39.296Z,100.00
2019-03-09T02:35:08.744Z,100.00
2019-03-09T02:37:36.949Z,100.00
2019-03-09T02:40:10.755Z,100.00
2019-03-09T02:42:39.369Z,100.00
2019-03-09T02:45:11.172Z,100.00
2019-03-09T02:47:39.347Z,100.00
2019-03-09T02:50:09.336Z,100.00
2019-03-09T02:52:37.759Z,100.00
2019-03-09T02:55:06.708Z,100.00
2019-03-09T02:57:34.799Z,100.00
2019-03-09T03:00:04.534Z,100.00
2019-03-09T03:02:38.095Z,100.00
2019-03-09T03:05:06.708Z,100.00
2019-03-09T03:07:34.833Z,100.00
2019-03-09T03:10:03.737Z,100.00
2019-03-09T03:12:31.842Z,100.00
2019-03-09T03:15:01.764Z,100.00
2019-03-09T03:17:29.832Z,100.00
2019-03-09T03:19:58.051Z,100.00
2019-03-09T03:22:26.522Z,100.00
2019-03-09T03:24:54.679Z,100.00
2019-03-09T03:27:22.884Z,100.00
2019-03-09T03:29:50.991Z,100.00
2019-03-09T03:32:19.090Z,100.00
2019-03-09T03:34:47.398Z,100.00
2019-03-09T03:37:15.616Z,100.00
2019-03-09T03:39:43.776Z,100.00
2019-03-09T03:42:12.176Z,100.00
2019-03-09T03:44:44.882Z,100.00
2019-03-09T03:47:15.061Z,100.00
2019-03-09T03:49:43.190Z,100.00
2019-03-09T03:52:11.793Z,100.00
2019-03-09T03:54:39.969Z,100.00
2019-03-09T03:57:08.116Z,100.00
2019-03-09T03:59:36.359Z,100.00
2019-03-09T04:02:04.582Z,100.00
2019-03-09T04:04:33.402Z,100.00
2019-03-09T04:07:01.833Z,100.00
2019-03-09T04:09:29.886Z,100.00
2019-03-09T04:11:58.209Z,100.00
2019-03-09T04:14:26.480Z,100.00
2019-03-09T04:16:54.927Z,100.00
2019-03-09T04:19:23.011Z,100.00
2019-03-09T04:21:51.239Z,100.00
2019-03-09T04:24:19.389Z,100.00
2019-03-09T04:26:47.610Z,100.00
2019-03-09T04:29:15.810Z,100.00
2019-03-09T04:31:44.318Z,100.00
2019-03-09T04:34:13.722Z,100.00
2019-03-09T04:36:41.858Z,100.00
2019-03-09T04:39:09.993Z,100.00
2019-03-09T04:41:38.067Z,100.00
2019-03-09T04:44:06.203Z,100.00
2019-03-09T04:46:34.815Z,100.00
2019-03-09T04:49:03.222Z,100.00
2019-03-09T04:51:31.410Z,100.00
2019-03-09T04:53:59.547Z,100.00
2019-03-09T04:56:27.709Z,100.00
2019-03-09T04:58:55.839Z,100.00
2019-03-09T05:01:24.100Z,100.00
2019-03-09T05:04:26.339Z,100.00
2019-03-09T05:06:54.521Z,100.00
2019-03-09T05:10:13.288Z,100.00
2019-03-09T05:12:41.959Z,100.00
2019-03-09T05:15:11.367Z,100.00
2019-03-09T05:17:39.561Z,100.00
2019-03-09T05:20:07.654Z,100.00
2019-03-09T05:22:35.737Z,100.00
2019-03-09T05:25:04.532Z,100.00
2019-03-09T05:27:33.272Z,100.00
2019-03-09T05:30:01.347Z,100.00
2019-03-09T05:32:29.724Z,100.00
2019-03-09T05:34:57.820Z,100.00
2019-03-09T05:37:25.964Z,100.00
2019-03-09T05:39:54.164Z,100.00
2019-03-09T05:42:22.601Z,100.00
2019-03-09T05:44:50.626Z,100.00
2019-03-09T05:47:19.059Z,100.00
2019-03-09T05:49:47.192Z,100.00
2019-03-09T05:52:35.235Z,100.00
2019-03-09T05:55:18.060Z,100.00
2019-03-09T05:57:46.158Z,100.00
2019-03-09T06:00:16.447Z,100.00
2019-03-09T06:02:44.535Z,100.00
2019-03-09T06:05:35.908Z,100.00
2019-03-09T06:08:04.823Z,98.68
2019-03-09T06:10:33.151Z,98.47
2019-03-09T06:13:01.366Z,98.46
2019-03-09T06:15:29.620Z,97.86
2019-03-09T06:17:58.047Z,97.39
2019-03-09T06:20:26.175Z,97.64
2019-03-09T06:22:54.301Z,98.01
2019-03-09T06:25:22.474Z,97.18
2019-03-09T06:27:50.549Z,96.73
2019-03-09T06:30:18.671Z,96.62
2019-03-09T06:33:27.685Z,95.53
2019-03-09T06:36:46.580Z,94.17
2019-03-09T06:39:24.709Z,93.39
2019-03-09T06:42:43.739Z,92.89
2019-03-09T06:45:14.738Z,92.67
2019-03-09T06:47:42.875Z,92.53
2019-03-09T06:50:14.475Z,91.98
2019-03-09T06:52:42.580Z,91.65
2019-03-09T06:55:11.199Z,91.71
2019-03-09T06:57:39.837Z,91.47
2019-03-09T07:00:43.168Z,90.95
2019-03-09T07:03:11.858Z,90.49
2019-03-09T07:05:40.030Z,90.63
2019-03-09T07:08:08.102Z,89.76
2019-03-09T07:10:36.264Z,89.57
2019-03-09T07:13:04.503Z,89.47
2019-03-09T07:15:36.109Z,88.86
2019-03-09T07:18:19.448Z,88.30
2019-03-09T07:20:47.996Z,87.83
2019-03-09T07:23:16.143Z,87.92
2019-03-09T07:25:45.127Z,88.42
2019-03-09T07:28:14.918Z,88.02
2019-03-09T07:30:43.032Z,88.68
2019-03-09T07:33:12.820Z,87.44
2019-03-09T07:35:41.096Z,87.42
2019-03-09T07:38:09.228Z,87.14
2019-03-09T07:40:37.906Z,86.83
2019-03-09T07:43:06.119Z,87.31
2019-03-09T07:45:34.245Z,86.35
2019-03-09T07:48:02.364Z,85.75
2019-03-09T07:50:30.461Z,86.65
2019-03-09T07:52:58.637Z,85.51
2019-03-09T07:55:26.697Z,85.71
2019-03-09T07:58:00.424Z,85.24
2019-03-09T08:00:29.307Z,84.63
2019-03-09T08:02:57.504Z,84.56
2019-03-09T08:05:25.914Z,83.70
2019-03-09T08:07:54.038Z,83.36
2019-03-09T08:10:22.310Z,83.69
2019-03-09T08:12:51.942Z,82.35
2019-03-09T08:15:20.701Z,80.46
2019-03-09T08:17:48.848Z,81.44
2019-03-09T08:20:17.011Z,80.70
2019-03-09T08:22:45.439Z,79.81
2019-03-09T08:25:14.894Z,79.48
2019-03-09T08:27:43.042Z,78.33
2019-03-09T08:30:14.417Z,78.84
2019-03-09T08:32:42.877Z,78.11
2019-03-09T08:35:12.709Z,77.96
2019-03-09T08:37:41.686Z,77.05
2019-03-09T08:40:11.435Z,76.43
2019-03-09T08:42:40.156Z,76.87
2019-03-09T08:45:09.454Z,75.78
2019-03-09T08:47:37.585Z,76.03
2019-03-09T08:50:09.680Z,76.51
2019-03-09T08:52:37.803Z,76.92
2019-03-09T08:55:07.056Z,76.88
2019-03-09T08:57:35.225Z,76.20
2019-03-09T09:00:07.276Z,77.09
2019-03-09T09:02:35.594Z,77.62
2019-03-09T09:05:04.478Z,76.29
2019-03-09T09:07:32.568Z,74.79
2019-03-09T09:10:00.736Z,73.51
2019-03-09T09:12:28.898Z,73.59
2019-03-09T09:14:57.131Z,72.25
2019-03-09T09:17:25.306Z,72.27
2019-03-09T09:19:53.450Z,72.70
2019-03-09T09:22:22.194Z,74.12
2019-03-09T09:24:50.353Z,73.96
2019-03-09T09:27:19.735Z,73.36
2019-03-09T09:29:47.885Z,73.18
2019-03-09T09:32:15.990Z,73.02
2019-03-09T09:34:46.243Z,74.32
2019-03-09T09:37:14.413Z,73.01
2019-03-09T09:39:42.536Z,73.83
2019-03-09T09:42:10.716Z,71.74
2019-03-09T09:44:38.880Z,72.38
2019-03-09T09:47:07.106Z,70.75
2019-03-09T09:49:35.217Z,70.79
2019-03-09T09:52:03.396Z,71.40
2019-03-09T09:54:31.836Z,70.06
2019-03-09T09:56:59.909Z,69.92
2019-03-09T09:59:28.080Z,68.31
2019-03-09T10:01:56.565Z,68.36
2019-03-09T10:04:25.386Z,67.08
2019-03-09T10:06:53.501Z,68.41
2019-03-09T10:09:22.059Z,68.11
2019-03-09T10:11:50.305Z,68.05
2019-03-09T10:14:18.546Z,68.55
2019-03-09T10:16:46.732Z,67.46
2019-03-09T10:19:14.865Z,68.20
2019-03-09T10:21:42.989Z,68.09
2019-03-09T10:24:11.154Z,68.27
2019-03-09T10:26:39.333Z,67.70
2019-03-09T10:29:07.444Z,68.06
2019-03-09T10:31:35.538Z,67.81
2019-03-09T10:34:03.619Z,67.24
2019-03-09T10:36:31.822Z,67.57
2019-03-09T10:39:00.214Z,68.24
2019-03-09T10:41:29.747Z,68.00
2019-03-09T10:43:57.865Z,67.61
2019-03-09T10:46:26.011Z,68.13
2019-03-09T10:48:54.140Z,68.26
2019-03-09T10:51:22.284Z,67.62
2019-03-09T10:53:50.370Z,68.19
2019-03-09T10:56:18.524Z,66.13
2019-03-09T10:58:46.751Z,65.03
2019-03-09T11:01:15.031Z,63.57
2019-03-09T11:03:43.067Z,61.67
2019-03-09T11:06:11.326Z,63.34
2019-03-09T11:08:39.425Z,63.16
2019-03-09T11:11:07.516Z,61.73
2019-03-09T11:13:35.766Z,61.90
2019-03-09T11:16:03.912Z,61.38
2019-03-09T11:18:32.020Z,60.50
2019-03-09T11:21:00.141Z,59.90
2019-03-09T11:23:28.355Z,60.50
2019-03-09T11:25:56.654Z,60.38
2019-03-09T11:28:24.756Z,60.56
2019-03-09T11:30:52.899Z,60.51
2019-03-09T11:33:21.012Z,61.17
2019-03-09T11:35:49.622Z,61.91
2019-03-09T11:38:17.767Z,60.62
2019-03-09T11:40:56.607Z,59.40
2019-03-09T11:43:15.902Z,60.16
2019-03-09T11:45:43.998Z,60.96
2019-03-09T11:48:12.129Z,59.89
2019-03-09T11:50:40.310Z,60.81
2019-03-09T11:53:08.402Z,61.76
2019-03-09T11:55:36.497Z,60.17
2019-03-09T11:58:04.556Z,60.34
2019-03-09T12:00:34.447Z,59.79
2019-03-09T12:03:02.700Z,60.29
2019-03-09T12:05:31.082Z,60.07
2019-03-09T12:08:01.270Z,59.24
2019-03-09T12:10:29.397Z,59.55
2019-03-09T12:12:57.490Z,59.29
2019-03-09T12:15:25.654Z,59.68
2019-03-09T12:17:53.695Z,60.92
2019-03-09T12:20:23.659Z,59.64
2019-03-09T12:22:51.794Z,58.74
2019-03-09T12:25:19.901Z,58.66
2019-03-09T12:27:48.094Z,59.48
2019-03-09T12:30:16.301Z,57.90
2019-03-09T12:32:44.635Z,58.51
2019-03-09T12:35:13.720Z,59.49
2019-03-09T12:37:41.987Z,59.23
2019-03-09T12:40:13.017Z,59.86
2019-03-09T12:42:41.300Z,59.42
2019-03-09T12:45:10.305Z,59.43
2019-03-09T12:47:38.465Z,59.50
2019-03-09T12:50:10.874Z,60.53
2019-03-09T12:52:39.069Z,60.37
2019-03-09T12:55:07.173Z,59.75
2019-03-09T12:57:35.341Z,59.56
2019-03-09T13:00:04.027Z,59.87
2019-03-09T13:02:32.147Z,58.58
2019-03-09T13:05:00.373Z,58.55
2019-03-09T13:07:28.466Z,59.01
2019-03-09T13:09:56.654Z,59.23
2019-03-09T13:12:27.102Z,59.33
2019-03-09T13:14:55.260Z,59.84
2019-03-09T13:17:23.757Z,60.46
2019-03-09T13:19:51.947Z,60.53
2019-03-09T13:22:20.082Z,60.31
2019-03-09T13:24:48.150Z,60.38
2019-03-09T13:27:16.286Z,60.34
2019-03-09T13:29:44.426Z,58.57
2019-03-09T13:32:12.922Z,54.94
2019-03-09T13:34:40.996Z,54.53
2019-03-09T13:37:09.154Z,55.44
2019-03-09T13:39:37.206Z,55.76
2019-03-09T13:42:05.386Z,56.77
2019-03-09T13:44:33.534Z,56.64
2019-03-09T13:47:04.104Z,57.30
2019-03-09T13:49:31.627Z,56.30
2019-03-09T13:51:59.853Z,56.93
2019-03-09T13:54:28.328Z,56.84
2019-03-09T13:56:56.548Z,56.77
2019-03-09T13:59:24.748Z,56.32
2019-03-09T14:01:52.838Z,56.75
2019-03-09T14:04:21.013Z,56.23
2019-03-09T14:06:49.345Z,56.57
2019-03-09T14:09:17.441Z,55.78
2019-03-09T14:11:45.636Z,55.85
2019-03-09T14:14:14.116Z,55.45
2019-03-09T14:16:42.206Z,55.88
2019-03-09T14:19:11.569Z,56.54
2019-03-09T14:21:39.692Z,57.16
2019-03-09T14:24:07.778Z,57.99
2019-03-09T14:26:35.982Z,57.77
2019-03-09T14:29:04.166Z,58.98
2019-03-09T14:31:32.466Z,57.72
2019-03-09T14:34:00.701Z,58.65
2019-03-09T14:36:28.859Z,59.01
2019-03-09T14:38:57.368Z,59.50
2019-03-09T14:41:25.427Z,59.90
2019-03-09T14:43:54.278Z,59.96
2019-03-09T14:46:22.835Z,61.07
2019-03-09T14:48:51.024Z,60.95
2019-03-09T14:51:20.229Z,61.97
2019-03-09T14:53:48.320Z,63.59
2019-03-09T14:56:16.455Z,64.85
2019-03-09T14:58:44.735Z,67.93
2019-03-09T15:01:12.968Z,68.23
2019-03-09T15:03:41.374Z,69.34
2019-03-09T15:06:19.022Z,69.58
2019-03-09T15:08:52.925Z,71.03
2019-03-09T15:11:21.065Z,72.85
2019-03-09T15:13:52.391Z,75.00
2019-03-09T15:16:20.822Z,77.21
2019-03-09T15:18:48.968Z,80.60
2019-03-09T15:21:17.073Z,84.58
2019-03-09T15:23:45.213Z,87.08
2019-03-09T15:26:13.329Z,89.40
2019-03-09T15:28:41.453Z,91.45
2019-03-09T15:31:09.627Z,93.65
2019-03-09T15:33:41.892Z,94.45
2019-03-09T15:36:10.518Z,96.65
2019-03-09T15:38:38.603Z,98.14
2019-03-09T15:41:06.830Z,99.07
2019-03-09T15:43:34.952Z,100.00
2019-03-09T15:46:03.493Z,100.00
2019-03-09T15:48:31.637Z,100.00
2019-03-09T15:50:59.902Z,100.00
2019-03-09T15:53:27.965Z,100.00
2019-03-09T15:55:58.128Z,100.00
2019-03-09T15:58:26.218Z,100.00
2019-03-09T16:00:54.396Z,100.00
2019-03-09T16:03:22.602Z,99.55
2019-03-09T16:05:50.676Z,99.52
2019-03-09T16:08:18.810Z,99.47
2019-03-09T16:10:47.281Z,99.41
2019-03-09T16:13:15.346Z,99.11
2019-03-09T16:15:43.541Z,100.00
2019-03-09T16:18:11.803Z,99.67
2019-03-09T16:20:40.376Z,100.00
2019-03-09T16:23:08.466Z,100.00
2019-03-09T16:25:36.784Z,100.00
2019-03-09T16:28:04.911Z,100.00
2019-03-09T16:30:32.998Z,100.00
2019-03-09T16:33:02.955Z,100.00
2019-03-09T16:35:31.455Z,99.91
2019-03-09T16:37:59.841Z,99.44
2019-03-09T16:40:28.192Z,99.44
2019-03-09T16:42:56.539Z,99.80
2019-03-09T16:45:24.770Z,100.00
2019-03-09T16:47:52.889Z,100.00
2019-03-09T16:50:21.082Z,100.00
2019-03-09T16:52:49.147Z,99.04
2019-03-09T16:55:17.277Z,97.29
2019-03-09T16:57:45.429Z,96.04
2019-03-09T17:00:17.483Z,95.47
2019-03-09T17:02:45.819Z,95.97
2019-03-09T17:05:14.058Z,96.66
2019-03-09T17:07:42.243Z,95.60
2019-03-09T17:10:10.450Z,95.77
2019-03-09T17:12:38.571Z,95.90
2019-03-09T17:15:08.440Z,95.74
2019-03-09T17:17:36.535Z,95.77
2019-03-09T17:20:06.408Z,95.96
2019-03-09T17:22:34.563Z,96.26
2019-03-09T17:25:02.690Z,94.21
2019-03-09T17:27:31.016Z,90.13
2019-03-09T17:29:59.826Z,89.43
2019-03-09T17:32:27.894Z,90.18
2019-03-09T17:34:56.494Z,90.84
2019-03-09T17:37:24.694Z,91.49
2019-03-09T17:39:52.871Z,92.97
2019-03-09T17:42:21.518Z,93.23
2019-03-09T17:44:50.203Z,94.07
2019-03-09T17:47:18.372Z,94.12
2019-03-09T17:49:46.511Z,94.46
2019-03-09T17:52:14.629Z,95.24
2019-03-09T17:54:42.735Z,96.58
2019-03-09T17:57:11.142Z,97.90
2019-03-09T17:59:39.358Z,98.06
2019-03-09T18:02:07.535Z,98.01
2019-03-09T18:04:36.203Z,98.35
2019-03-09T18:07:04.387Z,98.22
2019-03-09T18:09:32.492Z,97.77
2019-03-09T18:12:00.686Z,98.13
2019-03-09T18:14:28.787Z,98.05
2019-03-09T18:16:57.004Z,97.92
2019-03-09T18:19:25.642Z,97.02
2019-03-09T18:21:53.729Z,97.35
2019-03-09T18:24:22.204Z,96.31
2019-03-09T18:26:50.656Z,94.75
2019-03-09T18:29:18.815Z,94.62
2019-03-09T18:31:46.908Z,94.84
2019-03-09T18:34:15.573Z,94.59
2019-03-09T18:36:43.864Z,94.33
2019-03-09T18:39:11.928Z,94.29
2019-03-09T18:41:40.090Z,94.14
2019-03-09T18:44:08.265Z,94.49
2019-03-09T18:46:37.758Z,94.14
2019-03-09T18:49:05.934Z,94.22
2019-03-09T18:51:34.044Z,94.94
2019-03-09T18:54:02.134Z,94.59
2019-03-09T18:56:30.213Z,94.57
2019-03-09T18:58:58.425Z,94.29
2019-03-09T19:01:26.593Z,95.05
2019-03-09T19:03:54.704Z,95.19
2019-03-09T19:06:22.957Z,94.62
2019-03-09T19:08:51.083Z,94.24
2019-03-09T19:11:19.992Z,94.66
2019-03-09T19:13:48.127Z,94.61
2019-03-09T19:16:16.253Z,94.69
2019-03-09T19:18:44.368Z,94.64
2019-03-09T19:21:13.610Z,94.95
2019-03-09T19:23:42.259Z,94.79
2019-03-09T19:26:10.625Z,94.71
2019-03-09T19:28:38.764Z,94.83
2019-03-09T19:31:06.896Z,94.50
2019-03-09T19:33:35.027Z,93.98
2019-03-09T19:36:03.705Z,93.15
2019-03-09T19:38:31.968Z,92.70
2019-03-09T19:41:00.185Z,91.81
2019-03-09T19:43:28.414Z,91.37
2019-03-09T19:45:56.569Z,91.16
2019-03-09T19:48:24.691Z,91.00
2019-03-09T19:50:52.840Z,91.33
2019-03-09T19:53:20.981Z,90.91
2019-03-09T19:55:49.198Z,90.45
2019-03-09T19:58:18.277Z,89.99
2019-03-09T20:00:46.343Z,89.84
2019-03-09T20:03:14.620Z,89.87
2019-03-09T20:05:42.742Z,90.37
2019-03-09T20:08:10.829Z,90.21
2019-03-09T20:10:38.963Z,90.30
2019-03-09T20:13:07.029Z,89.98
2019-03-09T20:15:35.251Z,89.96
2019-03-09T20:18:03.378Z,89.86
2019-03-09T20:20:31.507Z,90.11
2019-03-09T20:23:00.179Z,90.14
2019-03-09T20:25:28.644Z,89.84
2019-03-09T20:27:56.860Z,90.04
2019-03-09T20:30:24.929Z,89.27
2019-03-09T20:32:53.156Z,89.62
2019-03-09T20:35:21.662Z,89.52
2019-03-09T20:37:49.811Z,89.25
2019-03-09T20:40:17.955Z,89.54
2019-03-09T20:42:46.122Z,89.66
2019-03-09T20:45:14.897Z,89.60
2019-03-09T20:47:43.229Z,89.99
2019-03-09T20:50:14.583Z,89.88
2019-03-09T20:52:42.779Z,90.08
2019-03-09T20:55:11.042Z,89.33
2019-03-09T20:57:39.191Z,89.45
2019-03-09T21:00:11.470Z,89.19
2019-03-09T21:02:39.718Z,89.04
2019-03-09T21:05:08.028Z,89.22
2019-03-09T21:07:36.132Z,89.02
2019-03-09T21:10:05.667Z,88.92
2019-03-09T21:12:33.786Z,88.93
2019-03-09T21:15:01.900Z,89.44
2019-03-09T21:17:30.099Z,89.80
2019-03-09T21:19:58.193Z,89.82
2019-03-09T21:22:26.399Z,90.01
2019-03-09T21:24:54.539Z,90.28
2019-03-09T21:27:22.795Z,90.63
2019-03-09T21:29:51.725Z,91.18
2019-03-09T21:32:19.928Z,91.41
2019-03-09T21:34:47.999Z,91.33
2019-03-09T21:37:16.104Z,91.36
2019-03-09T21:39:44.193Z,91.08
2019-03-09T21:42:12.683Z,91.36
2019-03-09T21:44:40.771Z,91.69
2019-03-09T21:47:08.917Z,90.55
2019-03-09T21:49:37.182Z,90.35
2019-03-09T21:52:06.130Z,90.10
2019-03-09T21:54:34.249Z,90.38
2019-03-09T21:57:02.402Z,90.87
2019-03-09T21:59:30.688Z,90.78
2019-03-09T22:01:59.212Z,91.05
2019-03-09T22:04:27.314Z,91.32
2019-03-09T22:06:55.488Z,91.53
2019-03-09T22:09:23.594Z,91.50
2019-03-09T22:11:51.723Z,91.39
2019-03-09T22:14:19.832Z,91.49
2019-03-09T22:16:56.249Z,90.90
2019-03-09T22:19:17.975Z,90.94
2019-03-09T22:21:46.081Z,90.96
2019-03-09T22:24:14.162Z,91.12
2019-03-09T22:26:42.444Z,91.54
2019-03-09T22:29:10.654Z,91.68
2019-03-09T22:31:38.848Z,91.77
2019-03-09T22:34:06.931Z,91.83
2019-03-09T22:36:35.079Z,92.20
2019-03-09T22:39:04.303Z,91.85
2019-03-09T22:41:32.447Z,92.28
2019-03-09T22:44:00.664Z,92.48
2019-03-09T22:46:29.028Z,92.53
2019-03-09T22:48:57.207Z,92.59
2019-03-09T22:51:25.285Z,92.44
2019-03-09T22:53:54.401Z,92.35
2019-03-09T22:56:22.659Z,92.40
2019-03-09T22:58:50.831Z,92.64
2019-03-09T23:01:19.284Z,92.77
2019-03-09T23:03:48.391Z,92.92
2019-03-09T23:06:16.882Z,92.81
2019-03-09T23:08:45.067Z,92.96
2019-03-09T23:11:13.232Z,93.42
2019-03-09T23:13:41.387Z,93.17
2019-03-09T23:16:13.899Z,93.26
2019-03-09T23:18:42.023Z,93.81
2019-03-09T23:21:10.191Z,94.13
2019-03-09T23:23:38.330Z,94.25
2019-03-09T23:26:06.428Z,94.45
2019-03-09T23:28:48.178Z,94.87
2019-03-09T23:31:16.456Z,95.04
2019-03-09T23:33:44.561Z,95.28
2019-03-09T23:36:12.796Z,95.21
2019-03-09T23:38:40.993Z,95.56
2019-03-09T23:41:09.240Z,95.30
2019-03-09T23:43:37.487Z,95.15
2019-03-09T23:46:05.553Z,95.33
2019-03-09T23:48:33.684Z,95.25
2019-03-09T23:51:01.770Z,95.48
2019-03-09T23:53:29.889Z,95.87
2019-03-09T23:55:58.425Z,95.80
2019-03-09T23:58:26.720Z,95.69
